Pierre, South Dakota
Current Conditions -  °F | °C
As of 1:53 AM on Tuesday 21 Oct 2014 (Local Time) from KPIR Reporting Station
Clear Clear  
Wind Chill: 12°   Ceiling: Unl
Heat Index: 12°   Visibility: 10mi
Dew Point:   Wind: 12mph
Humidity: 57%   Direction: 110°ESE
Pressure: 29.9"   Gusts: NA
Location:  44.37°N, 100.35°W
Report Text: KPIR 210653Z AUTO 11010KT 10SM CLR 12/03 A2990 RMK AO2 SLP118 T01170033
Loading
Personal Weather Stations






























Interactive Weather Map New forecast layout! Learn more

10-Day Weather Forecast

Advertisements
Track Severe Weather on mobile